Data for 07/09/2018

Time Sea-Level Adjusted Pressure Absolute Pressure Temperature Relative Humidity Dew Point   
(mb) (inHg) (mb) (inHg) (C) (F) (%) (C) (F)
00:05 1023 30.21 852 25.16 18.2 64.7 61 10.6 51.2
00:10 1023 30.21 852 25.16 18.1 64.5 60 10.3 50.5
00:15 1023 30.21 852 25.16 18.5 65.2 58 10.3 50.5
00:20 1023 30.21 852 25.16 18.5 65.3 59 10.4 50.7
00:25 1023 30.21 852 25.16 18.5 65.4 58 10.3 50.6
00:30 1023 30.21 852 25.16 18.4 65.2 59 10.3 50.6
00:35 1023 30.21 852 25.16 18.4 65.2 60 10.5 51
00:40 1023 30.21 852 25.16 18.3 65 61 10.7 51.2
00:45 1023 30.21 852 25.16 17.8 64.1 62 10.5 51
00:50 1023 30.21 852 25.16 17.3 63.2 64 10.5 50.9
00:55 1023 30.21 852 25.16 16.9 62.4 65 10.5 50.8
01:00 1023 30.21 852 25.16 16.7 62.1 65 10.3 50.5
01:05 1023 30.21 852 25.16 16.8 62.2 66 10.4 50.7
01:10 1023 30.21 852 25.16 16.8 62.2 65 10.3 50.6
01:15 1023 30.21 852 25.16 16.9 62.5 65 10.3 50.5
01:20 1023 30.21 852 25.16 17.2 62.9 64 10.3 50.6
01:25 1023 30.21 852 25.16 17.3 63.1 64 10.4 50.7
01:30 1023 30.21 852 25.16 17.3 63.2 64 10.5 50.9
01:35 1023 30.21 852 25.16 17.5 63.5 63 10.4 50.7
01:40 1023 30.21 852 25.16 17.7 63.8 62 10.5 50.9
01:45 1023 30.21 852 25.16 17.7 63.8 62 10.5 50.8
01:50 1023 30.21 852 25.16 17.7 63.9 63 10.6 51
01:55 1023 30.21 852 25.16 17.5 63.6 64 10.6 51.1
02:00 1023 30.21 852 25.16 17.2 62.9 65 10.5 51
02:05 1023 30.21 852 25.16 16.9 62.4 65 10.3 50.5
02:10 1023 30.21 852 25.16 16.8 62.2 64 10.1 50.2
02:15 1023 30.21 852 25.16 16.8 62.3 64 10 50
02:20 1023 30.21 852 25.16 16.9 62.4 63 9.9 49.8
02:25 1023 30.21 852 25.16 17.2 62.9 61 9.7 49.4
02:30 1023 30.21 852 25.16 17.7 63.9 60 9.9 49.7
02:35 1023 30.21 852 25.16 18.2 64.8 57 9.6 49.3
02:40 1023 30.21 852 25.16 18.1 64.6 57 9.6 49.2
02:45 1023 30.21 852 25.16 18.1 64.6 57 9.7 49.4
02:50 1023 30.21 852 25.16 18.3 64.9 57 9.7 49.4
02:55 1023 30.21 852 25.16 18.2 64.7 58 9.8 49.6
03:00 1023 30.21 852 25.16 18.1 64.6 58 9.8 49.7
03:05 1023 30.21 852 25.16 18.1 64.6 57 9.7 49.4
03:10 1023 30.21 852 25.16 17.6 63.7 59 9.5 49.1
03:15 1023 30.21 852 25.16 17.4 63.4 60 9.7 49.5
03:20 1023 30.21 852 25.16 17.3 63.2 61 9.7 49.5
03:25 1023 30.21 852 25.16 16.8 62.3 62 9.7 49.4
03:30 1023 30.21 852 25.16 16.4 61.6 64 9.6 49.2
03:35 1023 30.21 852 25.16 16.1 61 65 9.6 49.2
03:40 1023 30.21 852 25.16 15.8 60.4 66 9.5 49.1
03:45 1023 30.21 852 25.16 15.7 60.2 66 9.4 48.9
03:50 1023 30.21 852 25.16 15.7 60.3 66 9.5 49.1
03:55 1023 30.21 852 25.16 15.9 60.5 66 9.5 49.1
04:00 1023 30.21 852 25.16 15.8 60.4 65 9.3 48.7
04:05 1023 30.21 852 25.16 15.7 60.3 63 8.8 47.9
04:10 1023 30.21 852 25.16 16.3 61.4 61 9 48.1
04:15 1023 30.21 852 25.16 16.6 61.9 61 9.3 48.7
04:20 1023 30.21 852 25.16 16.4 61.5 64 9.6 49.4
04:25 1023 30.21 852 25.16 16.4 61.6 64 9.6 49.4
04:30 1023 30.21 852 25.16 16.1 60.9 65 9.6 49.3
04:35 1023 30.21 852 25.16 16.1 61 65 9.6 49.3
04:40 1023 30.21 852 25.16 16 60.7 66 9.6 49.3
04:45 1023 30.21 852 25.16 15.8 60.4 67 9.6 49.3
04:50 1023 30.21 852 25.16 15.5 60 66 9.3 48.8
04:55 1023 30.21 852 25.16 15.4 59.7 67 9.4 48.9
05:00 1023 30.21 853 25.19 15.2 59.3 68 9.4 48.9
05:05 1023 30.21 853 25.19 15 59 68 9.2 48.5
05:10 1023 30.21 853 25.19 15 59 67 8.9 48
05:15 1023 30.21 853 25.19 15 59.1 66 8.8 47.8
05:20 1023 30.21 853 25.19 15 58.9 67 8.9 47.9
05:25 1023 30.21 853 25.19 15 59 65 8.6 47.4
05:30 1023 30.21 853 25.19 15.2 59.4 64 8.6 47.5
05:35 1024 30.24 853 25.19 15.5 60 63 8.6 47.5
05:40 1024 30.24 853 25.19 15.6 60 63 8.7 47.7
05:45 1024 30.24 853 25.19 15.9 60.7 62 8.8 47.8
05:50 1024 30.24 853 25.19 16.2 61.1 63 9.2 48.5
05:55 1024 30.24 853 25.19 16.2 61.2 63 9.3 48.7
06:00 1024 30.24 853 25.19 16.3 61.4 62 9.2 48.6
06:05 1024 30.24 853 25.19 16.4 61.5 63 9.3 48.8
06:10 1024 30.24 853 25.19 16.3 61.4 63 9.3 48.8
06:15 1024 30.24 853 25.19 16.3 61.3 65 9.6 49.3
06:20 1024 30.24 853 25.19 16.2 61.1 64 9.4 48.9
06:25 1024 30.24 853 25.19 16.4 61.6 64 9.7 49.4
06:30 1024 30.24 853 25.19 16.6 61.8 63 9.5 49.1
06:35 1024 30.24 853 25.19 16.9 62.5 62 9.6 49.3
06:40 1024 30.24 853 25.19 17.4 63.3 61 9.9 49.8
06:45 1024 30.24 853 25.19 17.8 64 58 9.5 49.2
06:50 1024 30.24 853 25.19 18.2 64.8 58 9.9 49.8
06:55 1024 30.24 853 25.19 18.4 65 57 9.7 49.5
07:00 1024 30.24 853 25.19 19 66.2 55 9.9 49.8
07:05 1024 30.24 853 25.19 19.5 67 55 10.3 50.6
07:10 1024 30.24 853 25.19 19.5 67.1 55 10.4 50.7
07:15 1024 30.24 853 25.19 19.5 67.1 55 10.5 50.8
07:20 1024 30.24 853 25.19 19.7 67.5 55 10.6 51.1
07:25 1024 30.24 853 25.19 19.9 67.8 55 10.6 51.1
07:30 1024 30.24 853 25.19 20.6 69 51 10.3 50.5
07:35 1024 30.24 853 25.19 20.9 69.5 50 10.2 50.4
07:40 1024 30.24 853 25.19 20.8 69.5 49 9.9 49.9
07:45 1024 30.24 854 25.22 21 69.9 50 10.5 50.9
07:50 1024 30.24 854 25.22 21.4 70.6 49 10.3 50.5
07:55 1024 30.24 854 25.22 21.5 70.7 48 10.3 50.5
08:00 1024 30.24 854 25.22 21.4 70.5 48 10.1 50.3
08:05 1024 30.24 854 25.22 21.6 70.9 49 10.6 51.1
08:10 1024 30.24 854 25.22 21.9 71.4 48 10.7 51.2
08:15 1024 30.24 854 25.22 22.5 72.4 44 9.8 49.7
08:20 1024 30.24 854 25.22 22.3 72.2 47 10.6 51
08:25 1024 30.24 854 25.22 22.2 72 46 10.1 50.2
08:30 1024 30.24 854 25.22 22.8 73 43 9.9 49.8
08:35 1024 30.24 854 25.22 22.7 72.9 45 10.2 50.4
08:40 1024 30.24 854 25.22 22.8 73 46 10.6 51.1
08:45 1024 30.24 854 25.22 22.9 73.2 44 10.2 50.4
08:50 1024 30.24 853 25.19 22.9 73.1 44 10.2 50.4
08:55 1024 30.24 853 25.19 23.5 74.3 44 10.7 51.2
09:00 1024 30.24 853 25.19 23.8 74.9 43 10.8 51.4
09:05 1024 30.24 853 25.19 24.3 75.8 43 11 51.8
09:10 1024 30.24 853 25.19 24.4 75.9 42 10.8 51.4
09:15 1024 30.24 854 25.22 24.7 76.5 41 10.9 51.7
09:20 1024 30.24 853 25.19 24.2 75.6 43 11.2 52.1
09:25 1024 30.24 853 25.19 24.3 75.8 42 10.8 51.5
09:30 1024 30.24 853 25.19 24.8 76.6 41 11 51.8
09:35 1024 30.24 853 25.19 25.4 77.7 40 11.1 52
09:40 1024 30.24 853 25.19 25.7 78.2 40 11.1 52
09:45 1024 30.24 853 25.19 25.7 78.3 38 10.6 51
09:50 1024 30.24 853 25.19 25.2 77.3 40 10.7 51.3
09:55 1024 30.24 853 25.19 25.6 78 37 10.2 50.4
10:00 1024 30.24 853 25.19 26.2 79.1 39 11.3 52.3
10:05 1024 30.24 853 25.19 26.3 79.4 39 11.3 52.3
10:10 1024 30.24 853 25.19 26.7 80.1 37 11.2 52.2
10:15 1024 30.24 853 25.19 26 78.9 39 11.1 52
10:20 1024 30.24 853 25.19 25.7 78.3 40 11.2 52.2
10:25 1024 30.24 853 25.19 26.2 79.1 38 11.1 51.9
10:30 1024 30.24 853 25.19 26.6 79.9 38 11.4 52.5
10:35 1024 30.24 853 25.19 26.6 79.9 40 12.3 54.1
10:40 1024 30.24 853 25.19 26.4 79.6 39 11.7 53
10:45 1024 30.24 853 25.19 26.4 79.5 40 12.1 53.8
10:50 1024 30.24 853 25.19 26 78.8 40 11.4 52.6
10:55 1024 30.24 853 25.19 27 80.7 37 11.2 52.1
11:00 1024 30.24 853 25.19 27.4 81.3 37 11.5 52.7
11:05 1024 30.24 853 25.19 27.5 81.5 36 11.3 52.4
11:10 1024 30.24 853 25.19 27.7 81.8 33 10.4 50.7
11:15 1024 30.24 853 25.19 28.1 82.5 34 10.9 51.6
11:20 1024 30.24 853 25.19 28.3 82.9 33 10.9 51.6
11:25 1024 30.24 853 25.19 28.2 82.8 32 10.3 50.6
11:30 1024 30.24 853 25.19 28.5 83.4 32 10.8 51.4
11:35 1023 30.21 853 25.19 28.3 82.9 35 11.5 52.6
11:40 1023 30.21 853 25.19 27.2 81 33 9.9 49.8
11:45 1023 30.21 853 25.19 28.7 83.7 31 10.3 50.5
11:50 1023 30.21 853 25.19 28.8 83.8 34 11.5 52.7
11:55 1023 30.21 853 25.19 28.3 82.9 37 12.4 54.3
12:00 1023 30.21 852 25.16 28.3 82.9 34 11.4 52.5
12:05 1023 30.21 852 25.16 28.4 83 34 11.1 52.1
12:10 1023 30.21 852 25.16 28.8 83.8 36 12.3 54.2
12:15 1023 30.21 852 25.16 28.2 82.8 34 11.1 51.9
12:20 1023 30.21 852 25.16 29.3 84.7 33 11.8 53.2
12:25 1023 30.21 852 25.16 29.6 85.4 34 12.2 54
12:30 1023 30.21 852 25.16 29.6 85.3 32 11.7 53.1
12:35 1023 30.21 852 25.16 29 84.1 34 12 53.6
12:40 1023 30.21 852 25.16 28.8 83.8 34 11.5 52.7
12:45 1023 30.21 852 25.16 29.8 85.7 33 12.2 54
12:50 1023 30.21 852 25.16 30.7 87.2 31 11.9 53.3
12:55 1023 30.21 852 25.16 30.9 87.6 31 11.9 53.5
13:00 1023 30.21 852 25.16 30.1 86.2 32 11.7 53.1
13:05 1023 30.21 852 25.16 29.9 85.8 31 11.5 52.6
13:10 1022 30.18 852 25.16 31 87.9 30 11.6 53
13:15 1022 30.18 852 25.16 30.8 87.5 31 12.1 53.8
13:20 1022 30.18 851 25.13 31 87.8 30 11.8 53.3
13:25 1022 30.18 851 25.13 31.1 88 31 12.4 54.4
13:30 1022 30.18 851 25.13 30.3 86.5 30 11.2 52.2
13:35 1022 30.18 851 25.13 30.6 87.1 30 11.4 52.5
13:40 1022 30.18 851 25.13 31.7 89.1 27 11 51.8
13:45 1022 30.18 851 25.13 32.5 90.5 28 12 53.5
13:50 1022 30.18 851 25.13 31.6 88.9 28 11.5 52.6
13:55 1022 30.18 851 25.13 30.1 86.2 30 11 51.8
14:00 1022 30.18 851 25.13 29.9 85.7 29 10.4 50.7
14:05 1022 30.18 851 25.13 30.1 86.2 32 12 53.7
14:10 1022 30.18 851 25.13 29.3 84.8 35 12.5 54.4
14:15 1022 30.18 851 25.13 29.2 84.5 35 12.3 54.1
14:20 1022 30.18 851 25.13 29 84.3 36 12.6 54.7
14:25 1022 30.18 851 25.13 29.2 84.5 35 12.5 54.5
14:30 1022 30.18 852 25.16 29.4 85 34 12.4 54.3
14:35 1022 30.18 852 25.16 29.9 85.8 37 13.8 56.9
14:40 1022 30.18 851 25.13 29.6 85.3 37 13.8 56.8
14:45 1022 30.18 851 25.13 29.9 85.7 36 13.6 56.6
14:50 1022 30.18 851 25.13 29.9 85.8 38 14.2 57.6
14:55 1022 30.18 851 25.13 29.5 85.2 40 14.7 58.5
15:00 1022 30.18 851 25.13 29.5 85 42 15.3 59.6
15:05 1022 30.18 851 25.13 29.2 84.5 40 14.3 57.7
15:10 1022 30.18 851 25.13 29.3 84.8 38 14 57.2
15:15 1022 30.18 851 25.13 29.5 85 40 14.6 58.2
15:20 1022 30.18 851 25.13 29.3 84.7 39 14.4 57.9
15:25 1022 30.18 851 25.13 29.1 84.3 40 14.5 58
15:30 1022 30.18 851 25.13 28.7 83.7 43 15 59
15:35 1022 30.18 851 25.13 28.8 83.8 43 15.3 59.5
15:40 1022 30.18 851 25.13 28.4 83.1 44 15.3 59.5
15:45 1022 30.18 851 25.13 28 82.3 45 15.3 59.5
15:50 1022 30.18 851 25.13 28 82.3 45 15.2 59.4
15:55 1022 30.18 852 25.16 27.8 82.1 43 14.5 58.1
16:00 1023 30.21 852 25.16 27.5 81.4 43 14.2 57.5
16:05 1023 30.21 852 25.16 26.9 80.4 51 16.2 61.1
16:10 1022 30.18 851 25.13 25.4 77.7 51 14.7 58.4
16:15 1022 30.18 851 25.13 24.4 75.9 45 11.9 53.5
16:20 1023 30.21 852 25.16 24.2 75.6 44 11.5 52.7
16:25 1023 30.21 852 25.16 24 75.2 46 11.9 53.4
16:30 1023 30.21 853 25.19 23.8 74.9 46 11.7 53
16:35 1024 30.24 853 25.19 24 75.2 50 13.1 55.7
16:40 1024 30.24 853 25.19 23 73.5 59 14.8 58.6
16:45 1024 30.24 853 25.19 21.1 69.9 66 14.5 58.1
16:50 1023 30.21 853 25.19 21.1 69.9 42 7.7 45.9
16:55 1023 30.21 852 25.16 23.5 74.3 44 10.6 51.1
17:00 1023 30.21 852 25.16 22.8 73.1 47 11 51.8
17:05 1023 30.21 852 25.16 22.2 71.9 56 13.2 55.7
17:10 1023 30.21 853 25.19 21.7 71 57 13 55.4
17:15 1023 30.21 853 25.19 21.3 70.4 59 13 55.5
17:20 1024 30.24 853 25.19 21.1 69.9 59 13 55.4
17:25 1023 30.21 853 25.19 21.2 70.2 62 13.8 56.9
17:30 1023 30.21 852 25.16 21.4 70.6 61 13.8 56.8
17:35 1023 30.21 852 25.16 21.9 71.3 58 13.4 56.2
17:40 1023 30.21 852 25.16 22.7 72.9 51 12.3 54.2
17:45 1023 30.21 852 25.16 23.1 73.6 55 13.6 56.5
17:50 1023 30.21 852 25.16 23.2 73.7 55 13.6 56.6
17:55 1022 30.18 852 25.16 23.2 73.8 51 12.7 54.8
18:00 1022 30.18 852 25.16 23.6 74.5 55 14.1 57.3
18:05 1022 30.18 851 25.13 23.6 74.4 50 12.7 54.9
18:10 1022 30.18 851 25.13 23.8 74.9 49 12.7 54.9
18:15 1022 30.18 851 25.13 24 75.2 49 12.8 55.1
18:20 1022 30.18 851 25.13 24.3 75.7 47 12.5 54.6
18:25 1022 30.18 851 25.13 24.3 75.7 49 13 55.5
18:30 1022 30.18 851 25.13 24.2 75.5 44 11.3 52.4
18:35 1022 30.18 851 25.13 24.4 76 46 12.1 53.8
18:40 1022 30.18 851 25.13 24.2 75.6 48 12.6 54.7
18:45 1022 30.18 851 25.13 23.9 75.1 49 12.9 55.2
18:50 1022 30.18 851 25.13 23.7 74.7 48 12.2 53.9
18:55 1022 30.18 851 25.13 23.8 74.8 46 11.7 53.1
19:00 1022 30.18 851 25.13 23.9 75 46 11.7 53.1
19:05 1022 30.18 851 25.13 23.8 74.9 46 11.7 53
19:10 1021 30.15 851 25.13 23.6 74.5 46 11.5 52.7
19:15 1021 30.15 851 25.13 23.6 74.4 46 11.5 52.6
19:20 1021 30.15 851 25.13 23.5 74.4 46 11.3 52.4
19:25 1021 30.15 850 25.1 23.5 74.2 45 11.2 52.1
19:30 1021 30.15 850 25.1 23.4 74.1 46 11.4 52.5
19:35 1021 30.15 850 25.1 23.1 73.6 49 12.1 53.7
19:40 1021 30.15 851 25.13 22.8 73.1 49 11.8 53.3
19:45 1021 30.15 851 25.13 22.8 73 49 11.6 52.8
19:50 1021 30.15 851 25.13 22.8 73.1 46 10.9 51.6
19:55 1021 30.15 851 25.13 23 73.5 44 10.4 50.8
20:00 1021 30.15 851 25.13 23.2 73.7 44 10.3 50.5
20:05 1021 30.15 850 25.1 23.1 73.6 43 10 50.1
20:10 1021 30.15 850 25.1 23.1 73.6 42 9.8 49.6
20:15 1021 30.15 850 25.1 23.1 73.6 43 9.9 49.8
20:20 1021 30.15 850 25.1 23 73.4 42 9.6 49.3
20:25 1021 30.15 851 25.13 23.3 73.9 38 8.3 47
20:30 1021 30.15 851 25.13 23.8 74.8 37 8.4 47.2
20:35 1022 30.18 851 25.13 23.8 74.8 37 8.4 47.1
20:40 1022 30.18 851 25.13 23.9 74.9 37 8.6 47.4
20:45 1022 30.18 851 25.13 23.9 75 40 9.6 49.4
20:50 1022 30.18 852 25.16 23.3 73.9 42 9.9 49.9
20:55 1022 30.18 851 25.13 23.2 73.8 40 8.9 48.1
21:00 1022 30.18 851 25.13 23.5 74.2 39 9 48.3
21:05 1022 30.18 851 25.13 23.5 74.2 42 10.1 50.3
21:10 1021 30.15 851 25.13 22.9 73.2 44 10.2 50.3
21:15 1021 30.15 851 25.13 22.8 73 45 10.3 50.6
21:20 1022 30.18 851 25.13 22.6 72.6 48 11 51.9
21:25 1022 30.18 851 25.13 22.3 72.1 49 11.2 52.2
21:30 1022 30.18 851 25.13 21.8 71.3 51 11.5 52.7
21:35 1022 30.18 851 25.13 21.7 71 51 11.1 52
21:40 1022 30.18 851 25.13 21.8 71.3 47 10.3 50.5
21:45 1022 30.18 851 25.13 22.1 71.8 51 11.7 53
21:50 1022 30.18 851 25.13 21.3 70.4 53 11.5 52.7
21:55 1021 30.15 851 25.13 21.5 70.6 49 10.3 50.6
22:00 1021 30.15 851 25.13 22 71.6 47 10.2 50.4
22:05 1021 30.15 851 25.13 22.2 72 45 9.8 49.6
22:10 1021 30.15 851 25.13 22.4 72.4 45 10 49.9
22:15 1021 30.15 851 25.13 22.4 72.3 46 10.3 50.6
22:20 1021 30.15 851 25.13 22.2 72 46 10.2 50.4
22:25 1021 30.15 851 25.13 21.9 71.5 47 10.4 50.7
22:30 1021 30.15 851 25.13 21.8 71.2 47 10 50.1
22:35 1021 30.15 850 25.1 21.9 71.3 47 10.1 50.2
22:40 1021 30.15 850 25.1 22.1 71.7 44 9.5 49.1
22:45 1021 30.15 850 25.1 22.6 72.6 43 9.6 49.4
22:50 1021 30.15 850 25.1 22.5 72.5 44 9.8 49.6
22:55 1021 30.15 850 25.1 22.4 72.3 44 9.7 49.5
23:00 1021 30.15 850 25.1 22.4 72.3 45 9.9 49.9
23:05 1021 30.15 850 25.1 22.1 71.8 46 10.3 50.5
23:10 1021 30.15 850 25.1 21.9 71.4 46 10.1 50.1
23:15 1021 30.15 850 25.1 21.9 71.4 46 10 49.9
23:20 1021 30.15 850 25.1 22 71.6 46 9.9 49.8
23:25 1021 30.15 850 25.1 22.3 72.1 44 9.5 49
23:30 1021 30.15 850 25.1 22.6 72.6 42 9.3 48.8
23:35 1021 30.15 850 25.1 22.9 73.1 41 9.2 48.6
23:40 1021 30.15 850 25.1 23.1 73.6 40 9 48.3
23:45 1021 30.15 850 25.1 23.1 73.6 41 9.3 48.8
23:50 1021 30.15 850 25.1 22.8 73.1 43 9.7 49.4
23:55 1021 30.15 850 25.1 22.5 72.4 44 9.8 49.6
24:00 1021 30.15 850 25.1 22.3 72.2 44 9.5 49.2